El Paso, Texas
Current Conditions -  °F | °C
As of 1:51 AM on Sunday 23 Nov 2014 (Local Time) from KELP Reporting Station
Clear Clear  
Wind Chill: 53°   Ceiling: Unl
Heat Index: 53°   Visibility: 10mi
Dew Point: 21°   Wind: 13mph
Humidity: 29%   Direction: 160°SSE
Pressure: 29.88"   Gusts: NA
Location:  31.76°N, 106.48°W
Report Text: KELP 230851Z 16011KT 10SM CLR 12/M06 A2988 RMK AO2 SLP073 T01171061 56006 $
Loading
Personal Weather Stations






























Interactive Weather Map New forecast layout! Learn more

10-Day Weather Forecast

Advertisements
Track Severe Weather on mobile